sensor_id;sensor_type;location;lat;lon;timestamp;P1;durP1;ratioP1;P2;durP2;ratioP2
78555;SDS011;67851;51.354;7.744;2024-01-15T00:00:06;33.55;;;17.08;;
78555;SDS011;67851;51.354;7.744;2024-01-15T00:02:35;36.00;;;17.88;;
78555;SDS011;67851;51.354;7.744;2024-01-15T00:05:03;39.25;;;18.00;;
78555;SDS011;67851;51.354;7.744;2024-01-15T00:07:29;32.70;;;16.80;;
78555;SDS011;67851;51.354;7.744;2024-01-15T00:09:56;33.80;;;16.77;;
78555;SDS011;67851;51.354;7.744;2024-01-15T00:12:23;34.45;;;16.20;;
78555;SDS011;67851;51.354;7.744;2024-01-15T00:14:50;42.65;;;18.95;;
78555;SDS011;67851;51.354;7.744;2024-01-15T00:17:17;26.67;;;12.82;;
78555;SDS011;67851;51.354;7.744;2024-01-15T00:19:44;39.42;;;17.55;;
78555;SDS011;67851;51.354;7.744;2024-01-15T00:22:11;49.70;;;20.63;;
78555;SDS011;67851;51.354;7.744;2024-01-15T00:24:38;44.63;;;18.27;;
78555;SDS011;67851;51.354;7.744;2024-01-15T00:27:04;45.28;;;21.63;;
78555;SDS011;67851;51.354;7.744;2024-01-15T00:29:31;44.17;;;20.67;;
78555;SDS011;67851;51.354;7.744;2024-01-15T00:31:58;48.38;;;22.80;;
78555;SDS011;67851;51.354;7.744;2024-01-15T00:34:26;48.40;;;22.33;;
78555;SDS011;67851;51.354;7.744;2024-01-15T00:36:53;49.40;;;22.80;;
78555;SDS011;67851;51.354;7.744;2024-01-15T00:39:20;50.60;;;23.27;;
78555;SDS011;67851;51.354;7.744;2024-01-15T00:41:47;53.50;;;23.67;;
78555;SDS011;67851;51.354;7.744;2024-01-15T00:44:14;61.20;;;24.15;;
78555;SDS011;67851;51.354;7.744;2024-01-15T00:46:44;49.13;;;22.27;;
78555;SDS011;67851;51.354;7.744;2024-01-15T00:49:14;54.53;;;23.83;;
78555;SDS011;67851;51.354;7.744;2024-01-15T00:51:41;44.08;;;22.05;;
78555;SDS011;67851;51.354;7.744;2024-01-15T00:54:07;47.25;;;22.70;;
78555;SDS011;67851;51.354;7.744;2024-01-15T00:56:35;46.25;;;21.98;;
78555;SDS011;67851;51.354;7.744;2024-01-15T00:59:01;55.65;;;23.65;;
78555;SDS011;67851;51.354;7.744;2024-01-15T01:01:28;51.63;;;21.05;;
78555;SDS011;67851;51.354;7.744;2024-01-15T01:03:56;51.85;;;23.65;;
78555;SDS011;67851;51.354;7.744;2024-01-15T01:06:23;52.30;;;21.85;;
78555;SDS011;67851;51.354;7.744;2024-01-15T01:08:50;45.08;;;21.45;;
78555;SDS011;67851;51.354;7.744;2024-01-15T01:11:16;49.97;;;22.17;;
78555;SDS011;67851;51.354;7.744;2024-01-15T01:13:43;53.92;;;22.05;;
78555;SDS011;67851;51.354;7.744;2024-01-15T01:16:10;45.85;;;21.48;;
78555;SDS011;67851;51.354;7.744;2024-01-15T01:18:37;46.05;;;22.15;;
78555;SDS011;67851;51.354;7.744;2024-01-15T01:21:04;40.20;;;17.35;;
78555;SDS011;67851;51.354;7.744;2024-01-15T01:23:31;44.13;;;20.35;;
78555;SDS011;67851;51.354;7.744;2024-01-15T01:25:58;44.30;;;20.67;;
78555;SDS011;67851;51.354;7.744;2024-01-15T01:28:25;41.88;;;20.45;;
78555;SDS011;67851;51.354;7.744;2024-01-15T01:30:52;39.28;;;18.27;;
78555;SDS011;67851;51.354;7.744;2024-01-15T01:33:18;49.30;;;20.35;;
78555;SDS011;67851;51.354;7.744;2024-01-15T01:35:45;42.22;;;18.02;;
78555;SDS011;67851;51.354;7.744;2024-01-15T01:38:13;45.78;;;21.33;;
78555;SDS011;67851;51.354;7.744;2024-01-15T01:40:40;46.65;;;20.17;;
78555;SDS011;67851;51.354;7.744;2024-01-15T01:43:08;43.20;;;19.92;;
78555;SDS011;67851;51.354;7.744;2024-01-15T01:45:35;50.92;;;22.05;;
78555;SDS011;67851;51.354;7.744;2024-01-15T01:48:02;52.88;;;22.02;;
78555;SDS011;67851;51.354;7.744;2024-01-15T01:50:30;50.95;;;20.83;;
78555;SDS011;67851;51.354;7.744;2024-01-15T01:52:58;45.67;;;19.30;;
78555;SDS011;67851;51.354;7.744;2024-01-15T01:55:26;52.92;;;22.13;;
78555;SDS011;67851;51.354;7.744;2024-01-15T01:57:54;54.45;;;22.65;;
78555;SDS011;67851;51.354;7.744;2024-01-15T02:00:22;54.58;;;24.70;;
78555;SDS011;67851;51.354;7.744;2024-01-15T02:02:49;54.45;;;23.98;;
78555;SDS011;67851;51.354;7.744;2024-01-15T02:05:18;56.20;;;23.00;;
78555;SDS011;67851;51.354;7.744;2024-01-15T02:07:48;50.63;;;20.65;;
78555;SDS011;67851;51.354;7.744;2024-01-15T02:10:15;63.05;;;25.65;;
78555;SDS011;67851;51.354;7.744;2024-01-15T02:12:42;55.03;;;23.45;;
78555;SDS011;67851;51.354;7.744;2024-01-15T02:15:09;60.08;;;23.65;;
78555;SDS011;67851;51.354;7.744;2024-01-15T02:17:49;61.70;;;23.15;;
78555;SDS011;67851;51.354;7.744;2024-01-15T02:20:24;50.97;;;21.77;;
78555;SDS011;67851;51.354;7.744;2024-01-15T02:22:51;54.20;;;22.17;;
78555;SDS011;67851;51.354;7.744;2024-01-15T02:25:18;59.75;;;22.80;;
78555;SDS011;67851;51.354;7.744;2024-01-15T02:27:45;56.60;;;22.88;;
78555;SDS011;67851;51.354;7.744;2024-01-15T02:30:12;58.25;;;22.70;;
78555;SDS011;67851;51.354;7.744;2024-01-15T02:32:39;43.42;;;19.92;;
78555;SDS011;67851;51.354;7.744;2024-01-15T02:35:06;58.47;;;22.25;;
78555;SDS011;67851;51.354;7.744;2024-01-15T02:37:33;48.05;;;18.73;;
78555;SDS011;67851;51.354;7.744;2024-01-15T02:40:00;50.72;;;21.25;;
78555;SDS011;67851;51.354;7.744;2024-01-15T02:42:26;50.78;;;21.25;;
78555;SDS011;67851;51.354;7.744;2024-01-15T02:44:53;48.00;;;21.33;;
78555;SDS011;67851;51.354;7.744;2024-01-15T02:47:20;41.38;;;18.25;;
78555;SDS011;67851;51.354;7.744;2024-01-15T02:49:47;43.83;;;15.35;;
78555;SDS011;67851;51.354;7.744;2024-01-15T02:52:14;37.90;;;16.15;;
78555;SDS011;67851;51.354;7.744;2024-01-15T02:54:41;41.25;;;15.60;;
78555;SDS011;67851;51.354;7.744;2024-01-15T02:57:07;38.47;;;16.42;;
78555;SDS011;67851;51.354;7.744;2024-01-15T02:59:34;36.83;;;15.50;;
78555;SDS011;67851;51.354;7.744;2024-01-15T03:02:00;45.80;;;17.20;;
78555;SDS011;67851;51.354;7.744;2024-01-15T03:04:27;41.85;;;17.20;;
78555;SDS011;67851;51.354;7.744;2024-01-15T03:06:54;42.25;;;16.95;;
78555;SDS011;67851;51.354;7.744;2024-01-15T03:09:21;37.60;;;16.92;;
78555;SDS011;67851;51.354;7.744;2024-01-15T03:11:48;44.47;;;16.90;;
78555;SDS011;67851;51.354;7.744;2024-01-15T03:14:15;47.05;;;17.92;;
78555;SDS011;67851;51.354;7.744;2024-01-15T03:16:41;43.17;;;16.85;;
78555;SDS011;67851;51.354;7.744;2024-01-15T03:19:09;38.90;;;16.02;;
78555;SDS011;67851;51.354;7.744;2024-01-15T03:21:37;44.75;;;17.27;;
78555;SDS011;67851;51.354;7.744;2024-01-15T03:24:04;43.22;;;17.98;;
78555;SDS011;67851;51.354;7.744;2024-01-15T03:26:32;42.38;;;18.23;;
78555;SDS011;67851;51.354;7.744;2024-01-15T03:28:58;41.22;;;14.93;;
78555;SDS011;67851;51.354;7.744;2024-01-15T03:31:25;36.72;;;15.25;;
78555;SDS011;67851;51.354;7.744;2024-01-15T03:33:52;45.60;;;16.90;;
78555;SDS011;67851;51.354;7.744;2024-01-15T03:36:19;37.30;;;16.17;;
78555;SDS011;67851;51.354;7.744;2024-01-15T03:38:46;40.38;;;17.67;;
78555;SDS011;67851;51.354;7.744;2024-01-15T03:41:13;42.13;;;15.73;;
78555;SDS011;67851;51.354;7.744;2024-01-15T03:43:40;47.42;;;16.83;;
78555;SDS011;67851;51.354;7.744;2024-01-15T03:46:07;40.00;;;15.02;;
78555;SDS011;67851;51.354;7.744;2024-01-15T03:48:33;41.70;;;15.73;;
78555;SDS011;67851;51.354;7.744;2024-01-15T03:51:00;38.42;;;15.68;;
78555;SDS011;67851;51.354;7.744;2024-01-15T03:53:27;40.00;;;14.75;;
78555;SDS011;67851;51.354;7.744;2024-01-15T03:55:54;39.65;;;15.90;;
78555;SDS011;67851;51.354;7.744;2024-01-15T03:58:21;44.03;;;16.30;;
78555;SDS011;67851;51.354;7.744;2024-01-15T04:00:47;39.35;;;15.90;;
78555;SDS011;67851;51.354;7.744;2024-01-15T04:03:14;28.35;;;13.20;;
78555;SDS011;67851;51.354;7.744;2024-01-15T04:05:41;36.33;;;13.73;;
78555;SDS011;67851;51.354;7.744;2024-01-15T04:08:08;35.83;;;13.80;;
78555;SDS011;67851;51.354;7.744;2024-01-15T04:10:35;36.22;;;14.60;;
78555;SDS011;67851;51.354;7.744;2024-01-15T04:13:02;35.17;;;14.55;;
78555;SDS011;67851;51.354;7.744;2024-01-15T04:15:30;37.05;;;14.18;;
78555;SDS011;67851;51.354;7.744;2024-01-15T04:17:57;39.80;;;14.05;;
78555;SDS011;67851;51.354;7.744;2024-01-15T04:20:24;34.22;;;14.57;;
78555;SDS011;67851;51.354;7.744;2024-01-15T04:22:51;37.70;;;14.30;;
78555;SDS011;67851;51.354;7.744;2024-01-15T04:25:18;32.15;;;13.80;;
78555;SDS011;67851;51.354;7.744;2024-01-15T04:27:45;32.30;;;13.30;;
78555;SDS011;67851;51.354;7.744;2024-01-15T04:30:12;40.72;;;13.45;;
78555;SDS011;67851;51.354;7.744;2024-01-15T04:32:39;34.00;;;12.63;;
78555;SDS011;67851;51.354;7.744;2024-01-15T04:35:06;31.25;;;13.52;;
78555;SDS011;67851;51.354;7.744;2024-01-15T04:37:33;27.55;;;10.60;;
78555;SDS011;67851;51.354;7.744;2024-01-15T04:40:00;35.30;;;13.68;;
78555;SDS011;67851;51.354;7.744;2024-01-15T04:42:30;40.80;;;14.80;;
78555;SDS011;67851;51.354;7.744;2024-01-15T04:44:57;33.47;;;11.27;;
78555;SDS011;67851;51.354;7.744;2024-01-15T04:47:24;34.05;;;14.77;;
78555;SDS011;67851;51.354;7.744;2024-01-15T04:49:51;42.97;;;13.50;;
78555;SDS011;67851;51.354;7.744;2024-01-15T04:52:17;29.48;;;12.18;;
78555;SDS011;67851;51.354;7.744;2024-01-15T04:54:44;34.50;;;13.95;;
78555;SDS011;67851;51.354;7.744;2024-01-15T04:57:11;31.65;;;13.68;;
78555;SDS011;67851;51.354;7.744;2024-01-15T04:59:38;29.83;;;12.98;;
78555;SDS011;67851;51.354;7.744;2024-01-15T05:02:06;34.67;;;12.93;;
78555;SDS011;67851;51.354;7.744;2024-01-15T05:04:33;28.27;;;13.18;;
78555;SDS011;67851;51.354;7.744;2024-01-15T05:07:00;37.58;;;15.50;;
78555;SDS011;67851;51.354;7.744;2024-01-15T05:09:26;34.72;;;13.82;;
78555;SDS011;67851;51.354;7.744;2024-01-15T05:11:57;34.53;;;14.00;;
78555;SDS011;67851;51.354;7.744;2024-01-15T05:14:23;35.83;;;13.45;;
78555;SDS011;67851;51.354;7.744;2024-01-15T05:16:50;38.08;;;14.43;;
78555;SDS011;67851;51.354;7.744;2024-01-15T05:19:17;32.13;;;13.52;;
78555;SDS011;67851;51.354;7.744;2024-01-15T05:21:45;35.38;;;14.15;;
78555;SDS011;67851;51.354;7.744;2024-01-15T05:24:11;30.60;;;13.45;;
78555;SDS011;67851;51.354;7.744;2024-01-15T05:26:39;34.00;;;12.88;;
78555;SDS011;67851;51.354;7.744;2024-01-15T05:29:06;33.38;;;12.95;;
78555;SDS011;67851;51.354;7.744;2024-01-15T05:31:33;33.25;;;11.30;;
78555;SDS011;67851;51.354;7.744;2024-01-15T05:34:00;31.80;;;11.85;;
78555;SDS011;67851;51.354;7.744;2024-01-15T05:36:27;37.22;;;12.20;;
78555;SDS011;67851;51.354;7.744;2024-01-15T05:38:54;28.08;;;11.50;;
78555;SDS011;67851;51.354;7.744;2024-01-15T05:41:21;26.80;;;11.10;;
78555;SDS011;67851;51.354;7.744;2024-01-15T05:43:48;27.33;;;11.25;;
78555;SDS011;67851;51.354;7.744;2024-01-15T05:46:15;33.38;;;11.93;;
78555;SDS011;67851;51.354;7.744;2024-01-15T05:48:42;34.08;;;10.95;;
78555;SDS011;67851;51.354;7.744;2024-01-15T05:51:10;28.60;;;11.40;;
78555;SDS011;67851;51.354;7.744;2024-01-15T05:53:38;27.52;;;9.50;;
78555;SDS011;67851;51.354;7.744;2024-01-15T05:56:06;26.95;;;11.60;;
78555;SDS011;67851;51.354;7.744;2024-01-15T05:58:33;28.20;;;10.65;;
78555;SDS011;67851;51.354;7.744;2024-01-15T06:01:00;27.17;;;11.85;;
78555;SDS011;67851;51.354;7.744;2024-01-15T06:03:26;32.40;;;12.13;;
78555;SDS011;67851;51.354;7.744;2024-01-15T06:05:53;35.08;;;12.35;;
78555;SDS011;67851;51.354;7.744;2024-01-15T06:08:20;27.02;;;12.23;;
78555;SDS011;67851;51.354;7.744;2024-01-15T06:10:47;27.98;;;12.00;;
78555;SDS011;67851;51.354;7.744;2024-01-15T06:13:14;33.78;;;14.65;;
78555;SDS011;67851;51.354;7.744;2024-01-15T06:15:40;31.40;;;13.30;;
78555;SDS011;67851;51.354;7.744;2024-01-15T06:18:07;31.52;;;12.60;;
78555;SDS011;67851;51.354;7.744;2024-01-15T06:20:36;27.00;;;10.63;;
78555;SDS011;67851;51.354;7.744;2024-01-15T06:23:03;32.97;;;12.40;;
78555;SDS011;67851;51.354;7.744;2024-01-15T06:25:30;28.58;;;12.10;;
78555;SDS011;67851;51.354;7.744;2024-01-15T06:27:56;27.70;;;12.25;;
78555;SDS011;67851;51.354;7.744;2024-01-15T06:30:23;28.23;;;12.75;;
78555;SDS011;67851;51.354;7.744;2024-01-15T06:32:51;32.63;;;13.20;;
78555;SDS011;67851;51.354;7.744;2024-01-15T06:35:18;40.55;;;14.07;;
78555;SDS011;67851;51.354;7.744;2024-01-15T06:37:48;25.73;;;12.20;;
78555;SDS011;67851;51.354;7.744;2024-01-15T06:40:15;32.35;;;12.63;;
78555;SDS011;67851;51.354;7.744;2024-01-15T06:42:42;28.15;;;12.88;;
78555;SDS011;67851;51.354;7.744;2024-01-15T06:45:09;40.17;;;12.48;;
78555;SDS011;67851;51.354;7.744;2024-01-15T06:47:36;30.08;;;12.55;;
78555;SDS011;67851;51.354;7.744;2024-01-15T06:50:03;38.63;;;13.32;;
78555;SDS011;67851;51.354;7.744;2024-01-15T06:52:31;36.60;;;12.38;;
78555;SDS011;67851;51.354;7.744;2024-01-15T06:54:57;25.55;;;11.90;;
78555;SDS011;67851;51.354;7.744;2024-01-15T06:57:24;22.60;;;11.23;;
78555;SDS011;67851;51.354;7.744;2024-01-15T06:59:51;29.67;;;12.77;;
78555;SDS011;67851;51.354;7.744;2024-01-15T07:02:18;31.83;;;11.98;;
78555;SDS011;67851;51.354;7.744;2024-01-15T07:04:44;44.95;;;13.13;;
78555;SDS011;67851;51.354;7.744;2024-01-15T07:07:11;22.70;;;9.25;;
78555;SDS011;67851;51.354;7.744;2024-01-15T07:09:37;27.75;;;9.75;;
78555;SDS011;67851;51.354;7.744;2024-01-15T07:12:05;22.45;;;10.30;;
78555;SDS011;67851;51.354;7.744;2024-01-15T07:14:32;25.67;;;9.73;;
78555;SDS011;67851;51.354;7.744;2024-01-15T07:16:58;19.90;;;10.07;;
78555;SDS011;67851;51.354;7.744;2024-01-15T07:19:25;19.30;;;10.15;;
78555;SDS011;67851;51.354;7.744;2024-01-15T07:21:52;19.33;;;9.80;;
78555;SDS011;67851;51.354;7.744;2024-01-15T07:24:22;19.45;;;8.32;;
78555;SDS011;67851;51.354;7.744;2024-01-15T07:26:49;20.33;;;9.55;;
78555;SDS011;67851;51.354;7.744;2024-01-15T07:29:16;27.30;;;10.73;;
78555;SDS011;67851;51.354;7.744;2024-01-15T07:31:49;22.05;;;9.00;;
78555;SDS011;67851;51.354;7.744;2024-01-15T07:34:17;15.23;;;8.77;;
78555;SDS011;67851;51.354;7.744;2024-01-15T07:36:44;17.15;;;7.28;;
78555;SDS011;67851;51.354;7.744;2024-01-15T07:39:11;21.80;;;9.48;;
78555;SDS011;67851;51.354;7.744;2024-01-15T07:41:38;19.30;;;9.48;;
78555;SDS011;67851;51.354;7.744;2024-01-15T07:44:05;15.48;;;8.23;;
78555;SDS011;67851;51.354;7.744;2024-01-15T07:46:32;15.40;;;8.10;;
78555;SDS011;67851;51.354;7.744;2024-01-15T07:48:59;14.80;;;8.50;;
78555;SDS011;67851;51.354;7.744;2024-01-15T07:51:26;15.85;;;8.00;;
78555;SDS011;67851;51.354;7.744;2024-01-15T07:53:53;23.02;;;8.77;;
78555;SDS011;67851;51.354;7.744;2024-01-15T07:56:21;22.73;;;9.75;;
78555;SDS011;67851;51.354;7.744;2024-01-15T07:58:48;18.52;;;10.82;;
78555;SDS011;67851;51.354;7.744;2024-01-15T08:01:15;22.02;;;12.60;;
78555;SDS011;67851;51.354;7.744;2024-01-15T08:03:42;22.65;;;10.90;;
78555;SDS011;67851;51.354;7.744;2024-01-15T08:06:09;22.50;;;12.20;;
78555;SDS011;67851;51.354;7.744;2024-01-15T08:08:37;24.75;;;11.05;;
78555;SDS011;67851;51.354;7.744;2024-01-15T08:11:04;22.73;;;11.43;;
78555;SDS011;67851;51.354;7.744;2024-01-15T08:13:31;21.00;;;10.48;;
78555;SDS011;67851;51.354;7.744;2024-01-15T08:15:58;19.30;;;10.15;;
78555;SDS011;67851;51.354;7.744;2024-01-15T08:18:25;22.33;;;10.63;;
78555;SDS011;67851;51.354;7.744;2024-01-15T08:20:52;17.27;;;9.48;;
78555;SDS011;67851;51.354;7.744;2024-01-15T08:23:20;16.65;;;10.23;;
78555;SDS011;67851;51.354;7.744;2024-01-15T08:25:47;18.45;;;10.55;;
78555;SDS011;67851;51.354;7.744;2024-01-15T08:28:15;18.13;;;10.13;;
78555;SDS011;67851;51.354;7.744;2024-01-15T08:30:41;18.58;;;9.77;;
78555;SDS011;67851;51.354;7.744;2024-01-15T08:33:08;16.60;;;9.27;;
78555;SDS011;67851;51.354;7.744;2024-01-15T08:35:46;12.13;;;7.70;;
78555;SDS011;67851;51.354;7.744;2024-01-15T08:38:13;14.00;;;8.75;;
78555;SDS011;67851;51.354;7.744;2024-01-15T08:40:40;15.50;;;7.88;;
78555;SDS011;67851;51.354;7.744;2024-01-15T08:43:06;16.63;;;7.65;;
78555;SDS011;67851;51.354;7.744;2024-01-15T08:45:33;12.43;;;7.22;;
78555;SDS011;67851;51.354;7.744;2024-01-15T08:48:00;11.10;;;6.60;;
78555;SDS011;67851;51.354;7.744;2024-01-15T08:50:28;11.32;;;6.70;;
78555;SDS011;67851;51.354;7.744;2024-01-15T08:52:55;9.73;;;6.78;;
78555;SDS011;67851;51.354;7.744;2024-01-15T08:55:22;11.05;;;6.55;;
78555;SDS011;67851;51.354;7.744;2024-01-15T08:57:49;11.48;;;6.10;;
78555;SDS011;67851;51.354;7.744;2024-01-15T09:00:17;11.70;;;6.43;;
78555;SDS011;67851;51.354;7.744;2024-01-15T09:02:43;10.77;;;6.10;;
78555;SDS011;67851;51.354;7.744;2024-01-15T09:05:11;10.02;;;5.97;;
78555;SDS011;67851;51.354;7.744;2024-01-15T09:07:39;11.02;;;5.60;;
78555;SDS011;67851;51.354;7.744;2024-01-15T09:10:07;9.50;;;6.28;;
78555;SDS011;67851;51.354;7.744;2024-01-15T09:12:34;10.90;;;6.13;;
78555;SDS011;67851;51.354;7.744;2024-01-15T09:15:01;9.68;;;6.25;;
78555;SDS011;67851;51.354;7.744;2024-01-15T09:17:31;9.18;;;5.60;;
78555;SDS011;67851;51.354;7.744;2024-01-15T09:19:58;9.02;;;5.95;;
78555;SDS011;67851;51.354;7.744;2024-01-15T09:22:25;8.82;;;5.60;;
78555;SDS011;67851;51.354;7.744;2024-01-15T09:24:52;10.32;;;6.13;;
78555;SDS011;67851;51.354;7.744;2024-01-15T09:27:19;9.63;;;6.60;;
78555;SDS011;67851;51.354;7.744;2024-01-15T09:29:47;8.65;;;6.07;;
78555;SDS011;67851;51.354;7.744;2024-01-15T09:32:13;8.48;;;6.05;;
78555;SDS011;67851;51.354;7.744;2024-01-15T09:34:40;10.40;;;6.57;;
78555;SDS011;67851;51.354;7.744;2024-01-15T09:37:08;9.50;;;6.50;;
78555;SDS011;67851;51.354;7.744;2024-01-15T09:39:39;10.30;;;6.70;;
78555;SDS011;67851;51.354;7.744;2024-01-15T09:42:07;10.20;;;6.78;;
78555;SDS011;67851;51.354;7.744;2024-01-15T09:44:34;10.40;;;5.72;;
78555;SDS011;67851;51.354;7.744;2024-01-15T09:47:01;10.20;;;6.15;;
78555;SDS011;67851;51.354;7.744;2024-01-15T09:49:28;10.05;;;6.30;;
78555;SDS011;67851;51.354;7.744;2024-01-15T09:51:56;8.35;;;5.25;;
78555;SDS011;67851;51.354;7.744;2024-01-15T09:54:36;8.68;;;6.20;;
78555;SDS011;67851;51.354;7.744;2024-01-15T09:57:04;8.88;;;5.82;;
78555;SDS011;67851;51.354;7.744;2024-01-15T09:59:32;8.88;;;5.88;;
78555;SDS011;67851;51.354;7.744;2024-01-15T10:01:59;10.20;;;6.07;;
78555;SDS011;67851;51.354;7.744;2024-01-15T10:04:28;9.10;;;6.30;;
78555;SDS011;67851;51.354;7.744;2024-01-15T10:06:56;7.65;;;4.95;;
78555;SDS011;67851;51.354;7.744;2024-01-15T10:09:24;9.82;;;7.00;;
78555;SDS011;67851;51.354;7.744;2024-01-15T10:11:52;9.05;;;6.40;;
78555;SDS011;67851;51.354;7.744;2024-01-15T10:14:19;7.20;;;5.45;;
78555;SDS011;67851;51.354;7.744;2024-01-15T10:16:46;10.07;;;6.82;;
78555;SDS011;67851;51.354;7.744;2024-01-15T10:19:12;10.35;;;7.30;;
78555;SDS011;67851;51.354;7.744;2024-01-15T10:21:39;9.70;;;5.95;;
78555;SDS011;67851;51.354;7.744;2024-01-15T10:24:06;9.75;;;6.28;;
78555;SDS011;67851;51.354;7.744;2024-01-15T10:26:34;8.95;;;6.38;;
78555;SDS011;67851;51.354;7.744;2024-01-15T10:29:02;9.18;;;5.78;;
78555;SDS011;67851;51.354;7.744;2024-01-15T10:31:29;9.10;;;4.97;;
78555;SDS011;67851;51.354;7.744;2024-01-15T10:34:09;10.25;;;4.90;;
78555;SDS011;67851;51.354;7.744;2024-01-15T10:36:41;8.10;;;5.03;;
78555;SDS011;67851;51.354;7.744;2024-01-15T10:39:13;7.32;;;4.22;;
78555;SDS011;67851;51.354;7.744;2024-01-15T10:41:40;5.47;;;3.85;;
78555;SDS011;67851;51.354;7.744;2024-01-15T10:44:07;6.60;;;3.65;;
78555;SDS011;67851;51.354;7.744;2024-01-15T10:46:34;5.80;;;3.70;;
78555;SDS011;67851;51.354;7.744;2024-01-15T10:49:01;5.63;;;3.88;;
78555;SDS011;67851;51.354;7.744;2024-01-15T10:51:28;4.70;;;3.33;;
78555;SDS011;67851;51.354;7.744;2024-01-15T10:53:55;7.47;;;3.83;;
78555;SDS011;67851;51.354;7.744;2024-01-15T10:56:25;5.85;;;3.67;;
78555;SDS011;67851;51.354;7.744;2024-01-15T10:58:55;6.53;;;3.72;;
78555;SDS011;67851;51.354;7.744;2024-01-15T11:01:26;5.63;;;3.47;;
78555;SDS011;67851;51.354;7.744;2024-01-15T11:03:56;6.05;;;3.20;;
78555;SDS011;67851;51.354;7.744;2024-01-15T11:06:25;6.15;;;4.30;;
78555;SDS011;67851;51.354;7.744;2024-01-15T11:08:55;6.45;;;4.65;;
78555;SDS011;67851;51.354;7.744;2024-01-15T11:11:22;7.97;;;3.85;;
78555;SDS011;67851;51.354;7.744;2024-01-15T11:13:49;6.30;;;4.20;;
78555;SDS011;67851;51.354;7.744;2024-01-15T11:16:19;7.30;;;4.80;;
78555;SDS011;67851;51.354;7.744;2024-01-15T11:21:25;9.57;;;4.90;;
78555;SDS011;67851;51.354;7.744;2024-01-15T11:23:54;8.07;;;5.20;;
78555;SDS011;67851;51.354;7.744;2024-01-15T11:26:31;6.22;;;4.55;;
78555;SDS011;67851;51.354;7.744;2024-01-15T11:29:00;11.25;;;5.57;;
78555;SDS011;67851;51.354;7.744;2024-01-15T11:31:30;8.63;;;4.93;;
78555;SDS011;67851;51.354;7.744;2024-01-15T11:34:15;9.02;;;4.90;;
78555;SDS011;67851;51.354;7.744;2024-01-15T11:42:02;9.25;;;4.80;;
78555;SDS011;67851;51.354;7.744;2024-01-15T11:44:30;9.38;;;5.72;;
78555;SDS011;67851;51.354;7.744;2024-01-15T11:46:58;12.10;;;5.25;;
78555;SDS011;67851;51.354;7.744;2024-01-15T11:52:35;7.32;;;3.47;;
78555;SDS011;67851;51.354;7.744;2024-01-15T11:55:10;11.70;;;6.43;;
78555;SDS011;67851;51.354;7.744;2024-01-15T11:57:45;19.88;;;6.50;;
78555;SDS011;67851;51.354;7.744;2024-01-15T12:00:19;12.95;;;6.03;;
78555;SDS011;67851;51.354;7.744;2024-01-15T12:02:47;15.60;;;6.55;;
78555;SDS011;67851;51.354;7.744;2024-01-15T12:05:15;8.38;;;4.60;;
78555;SDS011;67851;51.354;7.744;2024-01-15T12:07:43;15.57;;;8.13;;
78555;SDS011;67851;51.354;7.744;2024-01-15T12:10:11;16.38;;;7.00;;
78555;SDS011;67851;51.354;7.744;2024-01-15T12:13:02;12.48;;;6.63;;
78555;SDS011;67851;51.354;7.744;2024-01-15T12:15:32;15.07;;;6.97;;
78555;SDS011;67851;51.354;7.744;2024-01-15T12:17:59;20.25;;;8.10;;
78555;SDS011;67851;51.354;7.744;2024-01-15T12:20:29;20.08;;;6.97;;
78555;SDS011;67851;51.354;7.744;2024-01-15T12:22:56;16.33;;;7.47;;
78555;SDS011;67851;51.354;7.744;2024-01-15T12:25:30;10.77;;;5.72;;
78555;SDS011;67851;51.354;7.744;2024-01-15T12:27:56;11.80;;;5.55;;
78555;SDS011;67851;51.354;7.744;2024-01-15T12:30:23;14.10;;;5.78;;
78555;SDS011;67851;51.354;7.744;2024-01-15T12:32:51;16.55;;;7.85;;
78555;SDS011;67851;51.354;7.744;2024-01-15T12:35:17;15.27;;;6.50;;
78555;SDS011;67851;51.354;7.744;2024-01-15T12:37:45;13.70;;;6.60;;
78555;SDS011;67851;51.354;7.744;2024-01-15T12:40:18;12.45;;;5.38;;
78555;SDS011;67851;51.354;7.744;2024-01-15T12:42:45;15.70;;;6.60;;
78555;SDS011;67851;51.354;7.744;2024-01-15T12:45:13;10.43;;;5.47;;
78555;SDS011;67851;51.354;7.744;2024-01-15T12:47:39;17.67;;;7.53;;
78555;SDS011;67851;51.354;7.744;2024-01-15T12:50:07;11.90;;;5.20;;
78555;SDS011;67851;51.354;7.744;2024-01-15T12:52:45;12.32;;;4.60;;
78555;SDS011;67851;51.354;7.744;2024-01-15T12:55:12;12.00;;;5.05;;
78555;SDS011;67851;51.354;7.744;2024-01-15T12:57:39;14.23;;;5.60;;
78555;SDS011;67851;51.354;7.744;2024-01-15T13:00:06;18.83;;;5.93;;
78555;SDS011;67851;51.354;7.744;2024-01-15T13:02:41;11.07;;;5.35;;
78555;SDS011;67851;51.354;7.744;2024-01-15T13:05:09;13.68;;;6.03;;
78555;SDS011;67851;51.354;7.744;2024-01-15T13:07:41;19.50;;;6.82;;
78555;SDS011;67851;51.354;7.744;2024-01-15T13:10:08;12.63;;;5.88;;
78555;SDS011;67851;51.354;7.744;2024-01-15T13:12:36;12.48;;;7.75;;
78555;SDS011;67851;51.354;7.744;2024-01-15T13:15:04;16.45;;;6.78;;
78555;SDS011;67851;51.354;7.744;2024-01-15T13:17:34;15.55;;;7.32;;
78555;SDS011;67851;51.354;7.744;2024-01-15T13:20:01;12.50;;;5.50;;
78555;SDS011;67851;51.354;7.744;2024-01-15T13:22:29;14.68;;;6.03;;
78555;SDS011;67851;51.354;7.744;2024-01-15T13:24:59;13.30;;;6.38;;
78555;SDS011;67851;51.354;7.744;2024-01-15T13:27:26;12.93;;;6.40;;
78555;SDS011;67851;51.354;7.744;2024-01-15T13:29:54;14.88;;;7.20;;
78555;SDS011;67851;51.354;7.744;2024-01-15T13:32:23;15.20;;;6.43;;
78555;SDS011;67851;51.354;7.744;2024-01-15T13:34:52;12.40;;;5.88;;
78555;SDS011;67851;51.354;7.744;2024-01-15T13:37:19;10.63;;;6.80;;
78555;SDS011;67851;51.354;7.744;2024-01-15T13:39:45;15.57;;;7.03;;
78555;SDS011;67851;51.354;7.744;2024-01-15T13:42:12;13.95;;;6.70;;
78555;SDS011;67851;51.354;7.744;2024-01-15T13:44:39;14.45;;;6.90;;
78555;SDS011;67851;51.354;7.744;2024-01-15T13:47:07;14.75;;;7.10;;
78555;SDS011;67851;51.354;7.744;2024-01-15T13:49:36;16.63;;;7.72;;
78555;SDS011;67851;51.354;7.744;2024-01-15T13:52:03;17.52;;;8.90;;
78555;SDS011;67851;51.354;7.744;2024-01-15T13:54:30;10.15;;;7.40;;
78555;SDS011;67851;51.354;7.744;2024-01-15T13:57:15;8.15;;;6.40;;
78555;SDS011;67851;51.354;7.744;2024-01-15T13:59:42;24.98;;;8.10;;
78555;SDS011;67851;51.354;7.744;2024-01-15T14:02:09;18.27;;;12.15;;
78555;SDS011;67851;51.354;7.744;2024-01-15T14:04:37;18.95;;;10.05;;
78555;SDS011;67851;51.354;7.744;2024-01-15T14:07:05;15.82;;;9.90;;
78555;SDS011;67851;51.354;7.744;2024-01-15T14:09:33;18.60;;;10.07;;
78555;SDS011;67851;51.354;7.744;2024-01-15T14:12:00;16.38;;;10.52;;
78555;SDS011;67851;51.354;7.744;2024-01-15T14:14:30;21.95;;;9.43;;
78555;SDS011;67851;51.354;7.744;2024-01-15T14:16:57;23.92;;;10.93;;
78555;SDS011;67851;51.354;7.744;2024-01-15T14:19:24;19.80;;;10.65;;
78555;SDS011;67851;51.354;7.744;2024-01-15T14:21:51;16.30;;;10.57;;
78555;SDS011;67851;51.354;7.744;2024-01-15T14:24:21;15.82;;;10.52;;
78555;SDS011;67851;51.354;7.744;2024-01-15T14:26:48;20.58;;;9.45;;
78555;SDS011;67851;51.354;7.744;2024-01-15T14:29:15;18.30;;;9.85;;
78555;SDS011;67851;51.354;7.744;2024-01-15T14:31:44;18.15;;;9.30;;
78555;SDS011;67851;51.354;7.744;2024-01-15T14:34:15;18.30;;;10.02;;
78555;SDS011;67851;51.354;7.744;2024-01-15T14:36:44;18.88;;;9.48;;
78555;SDS011;67851;51.354;7.744;2024-01-15T14:39:12;19.65;;;10.57;;
78555;SDS011;67851;51.354;7.744;2024-01-15T14:41:39;17.35;;;8.05;;